首页
METAR-TAF:

METAR-TAF

机场 :

Cranwell, 英格兰

纬度: 53-02N, 经度: 000-30W, 海拔: 67米

当前天气观测

该预报发布于54分钟前的11:50 UTC
风速14节,风向南转西南
温度 16°C
湿度 88%
气压 998 hPa
能见度10公里或以上
少量云层高于1400英尺
散云层高于2400英尺
多云层高于6000英尺
小雨

METAR: EGYD 231150Z 21014KT 9999 -RA FEW014 SCT024 BKN060 16/14 Q0998 TEMPO 4000 RA BKN008 RMK WHT TEMPO GRN

时间: 13:44 (12:44 UTC)

预报

该预报发布于2小时和9分钟前的10:35 UTC
预报有效从23日的 12点(UTC)到 23日的 18点(UTC)
风速10节,风向西南
能见度10公里或以上
多云层高于3000英尺
短暂存在
从 23日的 12点(UTC)到 23日的 18点(UTC)
能見度: 4000
多云层高于800英尺
几率 30% :
短暂存在
从 23日的 12点(UTC)到 23日的 15点(UTC)
能見度: 3000
散云层高于500英尺
多云层高于800英尺, 塔状积云.
大雨
几率 30% :
短暂存在
从 23日的 15点(UTC)到 23日的 18点(UTC)
能見度: 3000
散云层高于400英尺
雨, 毛毛雨

TAF: EGYD 231035Z 2312/2318 23010KT 9999 BKN030 TEMPO 2312/2318 4000 RA BKN008 PROB30 TEMPO 2312/2315 3000 +RA SCT005 BKN008TCU PROB30 TEMPO 2315/2318 3000 RADZ SCT004

超过4000个机场的气象观测和天气预报(METAR&TAF报告)。

可查询的气象台以黄色和红色小点在地图上表示。

将鼠标移到小点上方,可查看气象台名称。

然后点击查看天气观测和预报。

如需切换地图:点击带黑十字的绿色按钮放大地图;点击带横线的绿色按钮缩小地图;或者点击绿色箭头查看邻近地区的地图。


METAR-TAF: